CLX744 WARR-WMKK
Flight info
| Callsign | CLX744 |
|---|---|
| Flight time | N/A |
| Altitude | 36000 |
| Route | RAMPY M635 JUNHA DCT SJ G579 VJB A457 GUPTA GUPTA1G |
| Aircraft | B744/H-SDE3FGHIM1M2RWXY/LB1 |
Departure
| Time | 2026-05-09 08:51 |
|---|---|
| Airport | Juanda International Airport (WARR) |
Arrival
| Time | N/A |
|---|---|
| Airport | Kuala Lumpur International Airport (WMKK) |
| Time | Latitude | Longitude | Altitude | Speed | Heading |
|---|---|---|---|---|---|
| 2026-05-09 08:34 | -7.37599 | 112.78432 | 11 ft | 0 kts | 9° |
| 2026-05-09 08:42 | -7.37612 | 112.78431 | 11 ft | 2 kts | 9° |
| 2026-05-09 08:42 | -7.37627 | 112.78428 | 11 ft | 2 kts | 20° |
| 2026-05-09 08:42 | -7.37639 | 112.78419 | 11 ft | 2 kts | 56° |
| 2026-05-09 08:42 | -7.37645 | 112.78405 | 11 ft | 2 kts | 85° |
| 2026-05-09 08:43 | -7.37647 | 112.78397 | 11 ft | 0 kts | 101° |
| 2026-05-09 08:43 | -7.37645 | 112.78391 | 12 ft | 0 kts | 99° |
| 2026-05-09 08:46 | -7.37646 | 112.78394 | 12 ft | 0 kts | 100° |
| 2026-05-09 08:47 | -7.37651 | 112.78435 | 12 ft | 10 kts | 95° |
| 2026-05-09 08:47 | -7.37664 | 112.78489 | 12 ft | 8 kts | 129° |
| 2026-05-09 08:47 | -7.37760 | 112.78471 | 12 ft | 19 kts | 260° |
| 2026-05-09 08:47 | -7.37759 | 112.78384 | 12 ft | 5 kts | 283° |
| 2026-05-09 08:48 | -7.37746 | 112.78302 | 12 ft | 23 kts | 279° |
| 2026-05-09 08:48 | -7.37699 | 112.78020 | 12 ft | 48 kts | 279° |
| 2026-05-09 08:48 | -7.37647 | 112.77709 | 12 ft | 42 kts | 277° |
| 2026-05-09 08:48 | -7.37612 | 112.77462 | 12 ft | 25 kts | 275° |
| 2026-05-09 08:49 | -7.37613 | 112.77428 | 12 ft | 2 kts | 253° |
| 2026-05-09 08:49 | -7.37634 | 112.77395 | 12 ft | 8 kts | 216° |
| 2026-05-09 08:49 | -7.37717 | 112.77367 | 12 ft | 17 kts | 192° |
| 2026-05-09 08:49 | -7.37769 | 112.77381 | 12 ft | 9 kts | 110° |
| 2026-05-09 08:50 | -7.37777 | 112.77413 | 12 ft | 0 kts | 102° |
| 2026-05-09 08:50 | -7.37793 | 112.77502 | 12 ft | 43 kts | 99° |
| 2026-05-09 08:50 | -7.37880 | 112.78113 | 12 ft | 130 kts | 99° |
| 2026-05-09 08:50 | -7.38078 | 112.79251 | 149 ft | 190 kts | 99° |
| 2026-05-09 08:51 | -7.38269 | 112.80598 | 975 ft | 199 kts | 96° |
| 2026-05-09 08:51 | -7.38431 | 112.81895 | 2155 ft | 188 kts | 96° |
| 2026-05-09 08:51 | -7.38589 | 112.83207 | 2816 ft | 199 kts | 97° |
| 2026-05-09 08:51 | -7.38784 | 112.84720 | 2915 ft | 237 kts | 99° |
| 2026-05-09 08:52 | -7.39133 | 112.86468 | 3075 ft | 268 kts | 103° |
| 2026-05-09 08:52 | -7.39509 | 112.88253 | 4336 ft | 256 kts | 103° |
| 2026-05-09 08:52 | -7.39829 | 112.89906 | 5662 ft | 240 kts | 100° |
| 2026-05-09 08:52 | -7.40038 | 112.91607 | 6104 ft | 261 kts | 93° |
| 2026-05-09 08:53 | -7.39979 | 112.93361 | 6481 ft | 279 kts | 81° |
| 2026-05-09 08:53 | -7.39590 | 112.94702 | 7286 ft | 274 kts | 67° |
| 2026-05-09 08:53 | -7.38664 | 112.96216 | 8777 ft | 247 kts | 50° |
| 2026-05-09 08:53 | -7.37458 | 112.97377 | 9569 ft | 249 kts | 38° |
| 2026-05-09 08:54 | -7.36174 | 112.98666 | 9481 ft | 283 kts | 56° |